Airfield :
LOGIN :

Register | Disclaimer

   EN    FR    IT 

 










Legend :    VFR   Marginal VFR   IFR   Intensive IFR   Very Intensive IFR
Visi :
Ceiling :
>= 8 km
>= 3000ft
5 to 8 km
1000 to 3000 ft
1500m to 5 km
500 to 1000 ft
800 to 1500m
200 to 500 ft
< 800m
< 200 ft
Symbols :   Thunderstorms  Fog  Heavy snow  Heavy precipitations  Wind > 20 kt
SIGMETs :     Misc.  Thunderstorms  Icing  Turbulence  Mountain Waves  Volcanic Ashes






- Airport Elevation : 37 ft


EHVL - Vlieland Heliport

CURRENT METAR :
  • 080155Z AUTO 30010KT 3200 BR SCT005 BKN006 BKN007 05/04 Q1022 REDZ YLO

EXPIRED METARs :
  • 080134Z AUTO 30011KT 2800 BR FEW004 BKN016 OVC020 05/04 Q1022 YLO
  • 080125Z AUTO 31011KT 4700 BR FEW006 SCT007 BKN008 05/04 Q1022 GRN
  • 080105Z AUTO 30011KT 5000 BR FEW006 BKN008 BKN019 05/04 Q1023 GRN
  • 080104Z AUTO 30011KT 5000 BR SCT006 SCT008 BKN010 05/04 Q1023 YLO
  • 080055Z AUTO 30011KT 5000 BR FEW006 SCT007 BKN009 05/04 Q1023 GRN
  • 080025Z AUTO 29012KT 5000 BR SCT007 SCT009 OVC010 05/04 Q1022 GRN
  • 072355Z AUTO 29012KT 6000 BR SCT009 BKN010 BKN012 05/03 Q1023 GRN
  • 072325Z AUTO 30013KT 7000 BR BKN010 OVC012 05/03 Q1023 GRN

Expired Forecast.



MET'MAP, your aeronautical weather chart ! - Copyright ORBIFLY December 2007 - Disclaimer

ORBIFLY MET'MAP TEAM :

Programming & Development : Alexandra Zaïnal
Concept & original design : Baudouin d'Aumeries
Assistance for programming : Marc-Olivier Méhu
Technical & hardware support : Manuel Goepfert

Contact : metmap@orbifly.com




SOURCES & CREDITS :

   NOAA